createdAt,value
2018-10-05T00:00:54.648Z,27.40
2018-10-05T00:03:23.691Z,29.17
2018-10-05T00:05:52.672Z,34.27
2018-10-05T00:08:21.474Z,34.10
2018-10-05T00:10:50.176Z,27.47
2018-10-05T00:13:18.984Z,28.00
2018-10-05T00:15:47.920Z,30.73
2018-10-05T00:18:16.713Z,29.53
2018-10-05T00:20:45.706Z,28.83
2018-10-05T00:23:14.477Z,26.20
2018-10-05T00:25:43.507Z,25.37
2018-10-05T00:28:12.530Z,25.03
2018-10-05T00:30:41.028Z,24.33
2018-10-05T00:33:09.796Z,27.67
2018-10-05T00:35:38.532Z,23.87
2018-10-05T00:38:07.308Z,23.37
2018-10-05T00:40:38.225Z,29.23
2018-10-05T00:43:06.875Z,28.27
2018-10-05T00:45:35.734Z,25.33
2018-10-05T00:48:04.548Z,23.97
2018-10-05T00:50:33.662Z,20.20
2018-10-05T00:53:02.600Z,23.57
2018-10-05T00:55:31.336Z,19.73
2018-10-05T00:58:00.190Z,23.07
2018-10-05T01:00:28.984Z,23.30
2018-10-05T01:02:57.741Z,24.50
2018-10-05T01:05:26.295Z,23.00
2018-10-05T01:07:55.293Z,22.60
2018-10-05T01:10:24.229Z,21.73
2018-10-05T01:12:52.934Z,22.53
2018-10-05T01:15:21.681Z,20.77
2018-10-05T01:17:50.632Z,23.30
2018-10-05T01:20:19.632Z,21.13
2018-10-05T01:22:48.258Z,23.97
2018-10-05T01:25:18.317Z,22.60
2018-10-05T01:27:46.926Z,23.63
2018-10-05T01:30:15.963Z,21.80
2018-10-05T01:32:45.276Z,22.77
2018-10-05T01:35:14.432Z,23.17
2018-10-05T01:37:43.001Z,20.10
2018-10-05T01:40:11.698Z,23.07
2018-10-05T01:42:40.370Z,25.17
2018-10-05T01:45:09.233Z,24.80
2018-10-05T01:47:38.464Z,22.17
2018-10-05T01:50:07.209Z,23.90
2018-10-05T01:52:35.857Z,32.93
2018-10-05T01:55:04.748Z,21.30
2018-10-05T01:57:33.416Z,23.23
2018-10-05T02:00:02.179Z,22.27
2018-10-05T02:02:31.040Z,22.80
2018-10-05T02:04:59.785Z,22.37
2018-10-05T02:07:28.554Z,23.60
2018-10-05T02:09:57.128Z,22.17
2018-10-05T02:12:25.855Z,25.27
2018-10-05T02:14:54.590Z,23.60
2018-10-05T02:17:23.194Z,24.70
2018-10-05T02:19:51.964Z,20.40
2018-10-05T02:22:20.800Z,22.10
2018-10-05T02:24:49.602Z,23.80
2018-10-05T02:27:18.173Z,23.20
2018-10-05T02:29:46.925Z,25.73
2018-10-05T02:32:15.570Z,25.17
2018-10-05T02:34:44.750Z,22.53
2018-10-05T02:37:13.453Z,24.20
2018-10-05T02:39:42.499Z,25.20
2018-10-05T02:42:11.455Z,24.80
2018-10-05T02:44:41.408Z,23.63
2018-10-05T02:47:10.105Z,21.53
2018-10-05T02:49:39.001Z,25.70
2018-10-05T02:52:07.778Z,28.17
2018-10-05T02:54:36.504Z,25.70
2018-10-05T02:57:05.592Z,23.80
2018-10-05T02:59:34.461Z,22.60
2018-10-05T03:02:18.214Z,22.90
2018-10-05T03:04:47.086Z,22.00
2018-10-05T03:07:15.790Z,20.13
2018-10-05T03:09:44.870Z,24.93
2018-10-05T03:12:13.675Z,24.87
2018-10-05T03:14:42.519Z,22.67
2018-10-05T03:17:12.623Z,20.60
2018-10-05T03:19:41.206Z,25.57
2018-10-05T03:22:09.961Z,22.57
2018-10-05T03:24:38.534Z,23.07
2018-10-05T03:27:08.368Z,20.63
2018-10-05T03:29:37.097Z,22.27
2018-10-05T03:32:05.726Z,23.70
2018-10-05T03:34:34.470Z,25.57
2018-10-05T03:37:03.135Z,23.40
2018-10-05T03:39:31.848Z,23.83
2018-10-05T03:42:00.665Z,23.37
2018-10-05T03:44:29.366Z,21.47
2018-10-05T03:46:58.108Z,21.53
2018-10-05T03:49:27.956Z,22.47
2018-10-05T03:51:56.882Z,22.40
2018-10-05T03:54:27.060Z,21.67
2018-10-05T03:56:56.173Z,22.77
2018-10-05T03:59:25.215Z,22.97
2018-10-05T04:01:54.990Z,20.87
2018-10-05T04:04:23.731Z,22.63
2018-10-05T04:06:52.447Z,22.17
2018-10-05T04:09:21.781Z,20.63
2018-10-05T04:11:50.651Z,23.03
2018-10-05T04:14:19.682Z,19.27
2018-10-05T04:16:48.576Z,18.77
2018-10-05T04:19:17.549Z,18.17
2018-10-05T04:21:46.647Z,23.00
2018-10-05T04:24:16.757Z,19.63
2018-10-05T04:26:45.477Z,19.60
2018-10-05T04:29:14.140Z,19.50
2018-10-05T04:31:42.771Z,19.53
2018-10-05T04:34:11.495Z,21.07
2018-10-05T04:36:40.204Z,16.83
2018-10-05T04:39:09.743Z,17.67
2018-10-05T04:41:38.519Z,18.83
2018-10-05T04:44:07.259Z,16.07
2018-10-05T04:46:36.095Z,15.83
2018-10-05T04:49:04.833Z,19.73
2018-10-05T04:51:33.816Z,19.50
2018-10-05T04:54:02.630Z,17.73
2018-10-05T04:56:32.338Z,17.43
2018-10-05T04:59:01.258Z,17.33
2018-10-05T05:01:30.073Z,18.20
2018-10-05T05:03:59.116Z,17.23
2018-10-05T05:06:28.005Z,22.53
2018-10-05T05:08:56.586Z,17.03
2018-10-05T05:11:26.461Z,19.23
2018-10-05T05:13:55.182Z,25.03
2018-10-05T05:16:23.982Z,22.73
2018-10-05T05:18:52.684Z,24.13
2018-10-05T05:21:21.351Z,23.27
2018-10-05T05:23:52.068Z,26.87
2018-10-05T05:26:20.874Z,26.70
2018-10-05T05:28:49.526Z,22.93
2018-10-05T05:31:18.263Z,19.80
2018-10-05T05:33:47.023Z,25.07
2018-10-05T05:36:15.655Z,22.93
2018-10-05T05:38:44.553Z,25.67
2018-10-05T05:41:13.266Z,27.93
2018-10-05T05:43:42.127Z,23.43
2018-10-05T05:46:13.468Z,24.93
2018-10-05T05:48:43.542Z,25.60
2018-10-05T05:51:12.421Z,23.20
2018-10-05T05:53:42.249Z,24.77
2018-10-05T05:56:11.595Z,20.13
2018-10-05T05:58:40.484Z,23.63
2018-10-05T06:01:10.397Z,24.27
2018-10-05T06:03:39.437Z,21.67
2018-10-05T06:06:08.082Z,17.97
2018-10-05T06:08:37.026Z,23.23
2018-10-05T06:11:05.796Z,20.67
2018-10-05T06:13:34.632Z,21.87
2018-10-05T06:16:03.473Z,23.17
2018-10-05T06:18:33.441Z,24.63
2018-10-05T06:21:05.855Z,25.37
2018-10-05T06:23:34.681Z,19.87
2018-10-05T06:28:34.939Z,24.07
2018-10-05T06:31:04.093Z,24.67
2018-10-05T06:33:32.685Z,22.93
2018-10-05T06:36:01.389Z,26.73
2018-10-05T06:38:30.653Z,22.83
2018-10-05T06:40:59.821Z,22.90
2018-10-05T06:43:28.591Z,25.63
2018-10-05T06:45:57.289Z,26.60
2018-10-05T06:48:26.910Z,28.87
2018-10-05T06:50:55.239Z,22.27
2018-10-05T06:53:40.791Z,28.60
2018-10-05T06:56:12.276Z,27.53
2018-10-05T06:58:40.921Z,25.27
2018-10-05T07:01:10.125Z,24.03
2018-10-05T07:03:39.029Z,27.40
2018-10-05T07:06:08.133Z,26.43
2018-10-05T07:08:37.426Z,26.60
2018-10-05T07:11:07.391Z,25.40
2018-10-05T07:13:36.353Z,23.93
2018-10-05T07:16:05.268Z,27.93
2018-10-05T07:18:34.029Z,27.07
2018-10-05T07:21:02.614Z,25.53
2018-10-05T07:23:32.112Z,24.47
2018-10-05T07:26:01.307Z,28.33
2018-10-05T07:28:30.268Z,29.93
2018-10-05T07:30:59.199Z,23.50
2018-10-05T07:33:27.616Z,22.57
2018-10-05T07:35:56.229Z,28.37
2018-10-05T07:38:24.928Z,20.60
2018-10-05T07:40:53.741Z,25.93
2018-10-05T07:43:22.371Z,20.07
2018-10-05T07:45:50.987Z,21.47
2018-10-05T07:48:19.820Z,27.77
2018-10-05T07:50:48.542Z,20.60
2018-10-05T07:53:17.217Z,23.10
2018-10-05T07:55:45.886Z,18.60
2018-10-05T07:58:14.606Z,24.70
2018-10-05T08:00:43.251Z,20.67
2018-10-05T08:03:12.178Z,25.17
2018-10-05T08:05:40.897Z,19.83
2018-10-05T08:08:09.464Z,25.90
2018-10-05T08:10:38.274Z,24.93
2018-10-05T08:13:07.235Z,21.17
2018-10-05T08:15:37.063Z,20.97
2018-10-05T08:18:05.831Z,19.77
2018-10-05T08:20:34.478Z,21.37
2018-10-05T08:23:03.238Z,22.23
2018-10-05T08:25:31.958Z,16.07
2018-10-05T08:28:00.585Z,20.33
2018-10-05T08:30:28.999Z,21.37
2018-10-05T08:32:57.414Z,16.53
2018-10-05T08:35:25.904Z,19.93
2018-10-05T08:37:56.025Z,18.83
2018-10-05T08:40:25.383Z,21.67
2018-10-05T08:42:53.769Z,18.43
2018-10-05T08:45:22.305Z,18.63
2018-10-05T08:47:50.821Z,19.83
2018-10-05T08:50:19.477Z,16.37
2018-10-05T08:52:48.071Z,16.47
2018-10-05T08:55:16.552Z,19.40
2018-10-05T08:57:44.975Z,17.10
2018-10-05T09:00:13.534Z,17.33
2018-10-05T09:02:42.058Z,19.87
2018-10-05T09:05:10.967Z,20.20
2018-10-05T09:07:39.693Z,22.10
2018-10-05T09:10:08.483Z,15.00
2018-10-05T09:12:37.246Z,16.10
2018-10-05T09:15:05.861Z,17.50
2018-10-05T09:17:34.369Z,15.63
2018-10-05T09:20:03.110Z,16.10
2018-10-05T09:22:31.725Z,18.60
2018-10-05T09:25:31.205Z,17.13
2018-10-05T09:27:59.880Z,15.97
2018-10-05T09:30:28.578Z,16.67
2018-10-05T09:32:57.052Z,16.90
2018-10-05T09:35:25.511Z,15.87
2018-10-05T09:37:54.000Z,17.43
2018-10-05T09:40:22.518Z,11.80
2018-10-05T09:42:51.033Z,16.37
2018-10-05T09:45:19.763Z,15.20
2018-10-05T09:47:48.385Z,15.53
2018-10-05T09:50:17.088Z,15.47
2018-10-05T09:52:45.829Z,15.90
2018-10-05T09:55:14.407Z,15.27
2018-10-05T09:57:43.098Z,15.83
2018-10-05T10:00:16.900Z,12.57
2018-10-05T10:02:52.481Z,13.40
2018-10-05T10:05:22.245Z,15.73
2018-10-05T10:07:50.997Z,15.17
2018-10-05T10:10:19.933Z,15.03
2018-10-05T10:12:48.821Z,14.57
2018-10-05T10:15:17.989Z,15.77
2018-10-05T10:17:47.106Z,14.43
2018-10-05T10:20:15.913Z,12.80
2018-10-05T10:22:44.743Z,13.83
2018-10-05T10:25:13.639Z,13.50
2018-10-05T10:27:42.178Z,11.33
2018-10-05T10:30:11.137Z,14.83
2018-10-05T10:32:39.746Z,15.17
2018-10-05T10:35:08.364Z,14.87
2018-10-05T10:37:37.448Z,13.83
2018-10-05T10:40:06.173Z,10.23
2018-10-05T10:42:34.976Z,13.83
2018-10-05T10:45:03.414Z,15.27
2018-10-05T10:47:32.182Z,15.77
2018-10-05T10:50:01.097Z,10.87
2018-10-05T10:52:30.111Z,12.07
2018-10-05T10:54:58.657Z,16.70
2018-10-05T10:57:27.510Z,11.57
2018-10-05T10:59:56.048Z,10.33
2018-10-05T11:02:24.621Z,12.77
2018-10-05T11:04:53.442Z,10.07
2018-10-05T11:07:22.125Z,13.87
2018-10-05T11:09:50.607Z,13.20
2018-10-05T11:12:19.528Z,14.20
2018-10-05T11:14:48.392Z,12.53
2018-10-05T11:17:17.009Z,14.60
2018-10-05T11:19:45.892Z,11.68
2018-10-05T11:22:14.377Z,10.88
2018-10-05T11:24:43.021Z,11.88
2018-10-05T11:27:12.200Z,12.05
2018-10-05T11:29:40.921Z,10.93
2018-10-05T11:32:09.701Z,10.65
2018-10-05T11:34:38.378Z,12.98
2018-10-05T11:37:07.020Z,10.43
2018-10-05T11:39:35.740Z,11.55
2018-10-05T11:42:04.312Z,13.00
2018-10-05T11:44:32.879Z,12.20
2018-10-05T11:47:01.534Z,9.33
2018-10-05T11:49:30.458Z,12.05
2018-10-05T11:51:59.397Z,10.15
2018-10-05T11:54:27.825Z,13.15
2018-10-05T11:56:56.531Z,9.73
2018-10-05T11:59:25.157Z,10.03
2018-10-05T12:01:53.910Z,12.95
2018-10-05T12:04:22.373Z,11.93
2018-10-05T12:06:50.860Z,10.58
2018-10-05T12:09:19.458Z,12.20
2018-10-05T12:11:48.047Z,10.45
2018-10-05T12:14:16.472Z,9.18
2018-10-05T12:16:45.088Z,9.58
2018-10-05T12:19:13.589Z,7.15
2018-10-05T12:21:42.037Z,10.95
2018-10-05T12:24:10.656Z,11.00
2018-10-05T12:26:39.431Z,13.60
2018-10-05T12:29:08.216Z,10.80
2018-10-05T12:31:36.932Z,9.55
2018-10-05T12:34:05.460Z,12.47
2018-10-05T12:36:33.968Z,10.65
2018-10-05T12:39:03.629Z,7.83
2018-10-05T12:41:32.422Z,7.90
2018-10-05T12:44:01.214Z,8.65
2018-10-05T12:46:29.868Z,8.40
2018-10-05T12:48:58.500Z,7.92
2018-10-05T12:51:27.109Z,14.15
2018-10-05T12:53:56.498Z,10.63
2018-10-05T12:56:25.147Z,8.50
2018-10-05T12:58:54.086Z,8.20
2018-10-05T13:01:22.718Z,8.03
2018-10-05T13:03:51.203Z,8.83
2018-10-05T13:06:20.057Z,8.60
2018-10-05T13:08:48.795Z,8.08
2018-10-05T13:11:17.376Z,9.13
2018-10-05T13:13:45.837Z,8.25
2018-10-05T13:16:14.577Z,9.45
2018-10-05T13:18:43.348Z,11.22
2018-10-05T13:21:12.055Z,11.15
2018-10-05T13:23:40.659Z,11.20
2018-10-05T13:26:09.579Z,9.58
2018-10-05T13:28:38.230Z,15.18
2018-10-05T13:31:07.337Z,10.53
2018-10-05T13:33:35.924Z,11.63
2018-10-05T13:36:04.789Z,13.35
2018-10-05T13:38:33.403Z,9.23
2018-10-05T13:41:02.206Z,9.13
2018-10-05T13:43:30.760Z,14.28
2018-10-05T13:45:59.222Z,12.43
2018-10-05T13:48:27.931Z,10.23
2018-10-05T13:50:56.541Z,9.73
2018-10-05T13:53:25.166Z,7.50
2018-10-05T13:55:53.940Z,12.50
2018-10-05T13:58:22.454Z,9.35
2018-10-05T14:00:51.050Z,9.75
2018-10-05T14:03:19.574Z,13.25
2018-10-05T14:05:47.931Z,10.78
2018-10-05T14:08:16.210Z,12.78
2018-10-05T14:10:45.536Z,9.00
2018-10-05T14:13:14.507Z,12.88
2018-10-05T14:15:49.313Z,11.43
2018-10-05T14:18:18.051Z,9.15
2018-10-05T14:20:47.125Z,8.58
2018-10-05T14:23:15.957Z,11.03
2018-10-05T14:25:44.502Z,13.13
2018-10-05T14:28:12.783Z,14.63
2018-10-05T14:30:41.162Z,14.53
2018-10-05T14:33:10.671Z,10.20
2018-10-05T14:35:39.936Z,11.77
2018-10-05T14:38:08.211Z,18.33
2018-10-05T14:40:36.513Z,13.43
2018-10-05T14:43:05.065Z,13.37
2018-10-05T14:45:34.106Z,15.47
2018-10-05T14:48:02.571Z,14.87
2018-10-05T14:50:30.868Z,11.37
2018-10-05T14:52:59.179Z,12.87
2018-10-05T14:55:27.877Z,10.03
2018-10-05T14:57:57.313Z,12.23
2018-10-05T15:00:29.120Z,11.23
2018-10-05T15:02:58.549Z,13.43
2018-10-05T15:05:27.289Z,14.90
2018-10-05T15:07:55.967Z,19.93
2018-10-05T15:10:24.719Z,14.47
2018-10-05T15:12:53.284Z,14.37
2018-10-05T15:15:21.679Z,14.50
2018-10-05T15:17:50.126Z,16.47
2018-10-05T15:20:18.846Z,16.70
2018-10-05T15:22:47.567Z,15.67
2018-10-05T15:25:16.428Z,13.67
2018-10-05T15:27:44.812Z,13.90
2018-10-05T15:30:14.353Z,13.67
2018-10-05T15:32:43.103Z,11.60
2018-10-05T15:35:12.118Z,13.73
2018-10-05T15:37:41.697Z,14.50
2018-10-05T15:40:11.176Z,14.57
2018-10-05T15:42:39.876Z,13.37
2018-10-05T15:47:38.446Z,15.10
2018-10-05T15:50:11.073Z,16.67
2018-10-05T15:52:39.309Z,11.77
2018-10-05T15:55:07.867Z,16.50
2018-10-05T15:57:36.293Z,13.43
2018-10-05T16:00:04.775Z,13.70
2018-10-05T16:02:33.068Z,13.43
2018-10-05T16:05:01.494Z,13.40
2018-10-05T16:07:30.236Z,16.30
2018-10-05T16:12:27.096Z,13.17
2018-10-05T16:14:55.705Z,12.67
2018-10-05T16:17:24.244Z,15.03
2018-10-05T16:19:52.824Z,10.93
2018-10-05T16:22:21.564Z,13.93
2018-10-05T16:24:50.205Z,12.40
2018-10-05T16:27:18.852Z,13.10
2018-10-05T16:29:47.358Z,16.90
2018-10-05T16:32:15.911Z,16.50
2018-10-05T16:34:44.468Z,11.53
2018-10-05T16:37:13.257Z,16.80
2018-10-05T16:39:41.863Z,11.43
2018-10-05T16:42:10.497Z,13.30
2018-10-05T16:44:39.159Z,12.20
2018-10-05T16:47:07.691Z,11.87
2018-10-05T16:49:36.041Z,18.90
2018-10-05T16:52:04.425Z,12.57
2018-10-05T16:54:33.265Z,9.37
2018-10-05T16:57:02.988Z,14.47
2018-10-05T16:59:32.163Z,11.27
2018-10-05T17:02:00.898Z,12.87
2018-10-05T17:04:29.618Z,14.67
2018-10-05T17:06:58.408Z,10.80
2018-10-05T17:09:26.824Z,12.20
2018-10-05T17:11:55.312Z,11.03
2018-10-05T17:14:23.856Z,13.07
2018-10-05T17:16:52.722Z,11.90
2018-10-05T17:19:21.156Z,11.97
2018-10-05T17:21:49.675Z,14.13
2018-10-05T17:24:18.758Z,14.00
2018-10-05T17:26:47.310Z,13.40
2018-10-05T17:29:16.176Z,20.80
2018-10-05T17:31:44.628Z,13.27
2018-10-05T17:34:13.082Z,9.17
2018-10-05T17:36:41.624Z,16.80
2018-10-05T17:39:12.131Z,10.80
2018-10-05T17:41:40.569Z,8.23
2018-10-05T17:44:09.101Z,9.83
2018-10-05T17:46:37.538Z,12.67
2018-10-05T17:49:06.578Z,12.43
2018-10-05T17:51:35.011Z,13.40
2018-10-05T17:54:03.885Z,13.93
2018-10-05T17:56:32.423Z,13.97
2018-10-05T18:01:34.399Z,16.77
2018-10-05T18:04:03.190Z,15.60
2018-10-05T18:06:31.891Z,13.20
2018-10-05T18:09:05.444Z,13.00
2018-10-05T18:11:33.877Z,11.27
2018-10-05T18:14:02.708Z,11.17
2018-10-05T18:16:31.756Z,18.07
2018-10-05T18:19:00.750Z,15.60
2018-10-05T18:21:29.436Z,14.10
2018-10-05T18:23:57.932Z,15.00
2018-10-05T18:26:26.259Z,13.67
2018-10-05T18:28:58.970Z,7.93
2018-10-05T18:31:27.761Z,13.00
2018-10-05T18:33:56.256Z,11.13
2018-10-05T18:36:24.800Z,11.80
2018-10-05T18:38:53.241Z,12.40
2018-10-05T18:41:21.707Z,15.07
2018-10-05T18:43:50.305Z,19.20
2018-10-05T18:46:19.771Z,15.30
2018-10-05T18:48:48.179Z,14.23
2018-10-05T18:51:16.910Z,9.97
2018-10-05T18:53:45.352Z,13.67
2018-10-05T18:56:19.563Z,14.57
2018-10-05T18:58:48.301Z,12.63
2018-10-05T19:01:17.209Z,14.53
2018-10-05T19:03:46.528Z,13.90
2018-10-05T19:06:15.382Z,12.63
2018-10-05T19:08:44.069Z,14.13
2018-10-05T19:11:13.553Z,15.07
2018-10-05T19:13:42.285Z,12.83
2018-10-05T19:16:11.052Z,11.93
2018-10-05T19:18:40.060Z,13.03
2018-10-05T19:21:09.305Z,12.50
2018-10-05T19:23:37.748Z,13.07
2018-10-05T19:26:06.450Z,15.30
2018-10-05T19:28:35.005Z,14.70
2018-10-05T19:31:03.803Z,19.13
2018-10-05T19:33:32.344Z,16.43
2018-10-05T19:36:01.141Z,13.83
2018-10-05T19:38:29.639Z,14.97
2018-10-05T19:40:58.083Z,13.63
2018-10-05T19:43:26.873Z,15.77
2018-10-05T19:45:55.466Z,14.63
2018-10-05T19:48:23.876Z,15.90
2018-10-05T19:50:52.279Z,18.00
2018-10-05T19:53:20.690Z,15.70
2018-10-05T19:55:49.160Z,19.90
2018-10-05T19:58:17.653Z,15.00
2018-10-05T20:00:46.827Z,13.93
2018-10-05T20:03:15.342Z,22.30
2018-10-05T20:05:43.665Z,22.30
2018-10-05T20:08:12.258Z,22.43
2018-10-05T20:10:40.989Z,17.60
2018-10-05T20:13:09.599Z,22.47
2018-10-05T20:15:38.001Z,24.30
2018-10-05T20:18:08.461Z,25.47
2018-10-05T20:20:38.996Z,22.37
2018-10-05T20:23:07.524Z,20.53
2018-10-05T20:25:36.115Z,21.90
2018-10-05T20:28:05.518Z,22.00
2018-10-05T20:30:33.883Z,17.20
2018-10-05T20:33:02.745Z,16.67
2018-10-05T20:35:31.135Z,17.00
2018-10-05T20:38:00.015Z,16.63
2018-10-05T20:40:28.583Z,17.93
2018-10-05T20:42:56.982Z,14.20
2018-10-05T20:45:25.483Z,18.37
2018-10-05T20:47:53.873Z,20.63
2018-10-05T20:50:22.365Z,18.83
2018-10-05T20:52:50.846Z,16.43
2018-10-05T20:55:19.202Z,16.23
2018-10-05T20:57:47.627Z,17.93
2018-10-05T21:00:16.299Z,16.80
2018-10-05T21:02:44.648Z,19.40
2018-10-05T21:05:13.133Z,17.63
2018-10-05T21:07:42.459Z,13.73
2018-10-05T21:10:10.927Z,16.33
2018-10-05T21:12:40.533Z,18.83
2018-10-05T21:15:09.232Z,16.43
2018-10-05T21:17:37.855Z,15.30
2018-10-05T21:20:06.407Z,20.27
2018-10-05T21:22:34.993Z,20.17
2018-10-05T21:25:05.457Z,17.73
2018-10-05T21:27:34.188Z,18.03
2018-10-05T21:30:02.598Z,15.97
2018-10-05T21:32:32.149Z,20.13
2018-10-05T21:35:01.189Z,15.60
2018-10-05T21:37:29.812Z,20.17
2018-10-05T21:39:58.952Z,17.53
2018-10-05T21:42:28.112Z,17.73
2018-10-05T21:44:57.722Z,16.30
2018-10-05T21:47:26.268Z,16.23
2018-10-05T21:49:54.854Z,21.67
2018-10-05T21:52:23.602Z,17.17
2018-10-05T21:54:52.048Z,20.93
2018-10-05T21:57:20.456Z,15.80
2018-10-05T21:59:48.870Z,17.17
2018-10-05T22:02:17.494Z,24.30
2018-10-05T22:04:45.829Z,15.03
2018-10-05T22:07:14.385Z,18.20
2018-10-05T22:09:44.639Z,16.90
2018-10-05T22:12:13.975Z,19.40
2018-10-05T22:14:44.256Z,18.10
2018-10-05T22:17:12.763Z,15.30
2018-10-05T22:19:41.248Z,15.37
2018-10-05T22:22:09.570Z,15.40
2018-10-05T22:24:37.867Z,14.93
2018-10-05T22:27:07.441Z,19.00
2018-10-05T22:29:35.873Z,15.40
2018-10-05T22:32:04.482Z,16.37
2018-10-05T22:34:38.699Z,17.23
2018-10-05T22:37:07.349Z,18.17
2018-10-05T22:39:35.922Z,13.97
2018-10-05T22:42:04.726Z,14.60
2018-10-05T22:44:33.246Z,15.87
2018-10-05T22:47:01.595Z,16.93
2018-10-05T22:49:29.898Z,12.70
2018-10-05T22:51:58.431Z,12.57
2018-10-05T22:54:28.071Z,13.97
2018-10-05T22:56:56.372Z,16.23
2018-10-05T22:59:25.004Z,14.57
2018-10-05T23:01:53.343Z,15.40
2018-10-05T23:04:21.962Z,19.53
2018-10-05T23:06:50.462Z,18.67
2018-10-05T23:09:18.971Z,15.23
2018-10-05T23:11:47.457Z,18.10
2018-10-05T23:14:16.921Z,17.23
2018-10-05T23:16:45.388Z,15.30
2018-10-05T23:19:13.770Z,17.97
2018-10-05T23:21:42.064Z,16.73
2018-10-05T23:24:10.625Z,14.30
2018-10-05T23:26:38.929Z,12.13
2018-10-05T23:29:07.681Z,17.27
2018-10-05T23:31:36.203Z,14.70
2018-10-05T23:34:04.497Z,16.47
2018-10-05T23:36:33.124Z,15.00
2018-10-05T23:39:01.626Z,12.87
2018-10-05T23:41:31.032Z,13.10
2018-10-05T23:46:28.810Z,17.33
2018-10-05T23:48:57.041Z,12.83
2018-10-05T23:51:25.326Z,15.57
2018-10-05T23:53:53.629Z,13.17
2018-10-05T23:56:21.887Z,12.43
2018-10-05T23:58:50.061Z,16.97
